createdAt,value
2023-05-19T00:01:31.214Z,100.00
2023-05-19T00:03:59.549Z,100.00
2023-05-19T00:06:28.762Z,100.00
2023-05-19T00:09:06.432Z,100.00
2023-05-19T00:11:33.825Z,100.00
2023-05-19T00:14:03.396Z,100.00
2023-05-19T00:16:30.938Z,100.00
2023-05-19T00:18:58.854Z,100.00
2023-05-19T00:21:26.170Z,100.00
2023-05-19T00:23:52.787Z,100.00
2023-05-19T00:26:19.464Z,100.00
2023-05-19T00:28:46.150Z,100.00
2023-05-19T00:31:15.494Z,100.00
2023-05-19T00:33:44.881Z,100.00
2023-05-19T00:36:11.832Z,100.00
2023-05-19T00:38:39.200Z,100.00
2023-05-19T00:41:06.662Z,100.00
2023-05-19T00:43:33.806Z,100.00
2023-05-19T00:46:00.642Z,100.00
2023-05-19T00:48:27.394Z,100.00
2023-05-19T00:50:56.635Z,100.00
2023-05-19T00:53:24.618Z,100.00
2023-05-19T00:55:51.320Z,100.00
2023-05-19T00:58:18.820Z,100.00
2023-05-19T01:00:45.871Z,100.00
2023-05-19T01:03:14.622Z,100.00
2023-05-19T01:05:42.482Z,100.00
2023-05-19T01:08:09.394Z,100.00
2023-05-19T01:10:36.539Z,100.00
2023-05-19T01:13:05.147Z,100.00
2023-05-19T01:16:04.514Z,100.00
2023-05-19T01:18:43.269Z,100.00
2023-05-19T01:21:33.553Z,100.00
2023-05-19T01:24:18.477Z,100.00
2023-05-19T01:27:20.403Z,100.00
2023-05-19T01:30:08.045Z,100.00
2023-05-19T01:32:36.210Z,100.00
2023-05-19T01:35:04.606Z,100.00
2023-05-19T01:37:32.371Z,100.00
2023-05-19T01:39:59.238Z,100.00
2023-05-19T01:42:27.455Z,100.00
2023-05-19T01:44:55.688Z,100.00
2023-05-19T01:47:22.848Z,100.00
2023-05-19T01:49:49.483Z,100.00
2023-05-19T01:52:16.110Z,100.00
2023-05-19T01:54:45.093Z,100.00
2023-05-19T01:57:39.093Z,100.00
2023-05-19T02:00:31.038Z,100.00
2023-05-19T02:03:39.342Z,100.00
2023-05-19T02:06:30.471Z,100.00
2023-05-19T02:09:04.366Z,100.00
2023-05-19T02:11:41.508Z,100.00
2023-05-19T02:14:16.580Z,100.00
2023-05-19T02:16:46.004Z,100.00
2023-05-19T02:19:33.880Z,100.00
2023-05-19T02:22:00.612Z,100.00
2023-05-19T02:24:27.266Z,100.00
2023-05-19T02:26:54.459Z,100.00
2023-05-19T02:29:21.582Z,100.00
2023-05-19T02:31:48.568Z,100.00
2023-05-19T02:34:15.403Z,100.00
2023-05-19T02:36:42.822Z,100.00
2023-05-19T02:39:11.028Z,100.00
2023-05-19T02:41:38.451Z,100.00
2023-05-19T02:44:05.707Z,100.00
2023-05-19T02:46:32.733Z,100.00
2023-05-19T02:49:00.002Z,100.00
2023-05-19T02:51:26.662Z,100.00
2023-05-19T02:53:53.352Z,100.00
2023-05-19T02:56:20.054Z,100.00
2023-05-19T02:58:46.794Z,100.00
2023-05-19T03:01:13.442Z,100.00
2023-05-19T03:03:40.190Z,100.00
2023-05-19T03:06:06.934Z,100.00
2023-05-19T03:08:33.628Z,100.00
2023-05-19T03:11:00.271Z,100.00
2023-05-19T03:13:26.971Z,100.00
2023-05-19T03:15:53.722Z,100.00
2023-05-19T03:18:20.479Z,100.00
2023-05-19T03:20:47.172Z,100.00
2023-05-19T03:23:13.792Z,100.00
2023-05-19T03:25:40.446Z,100.00
2023-05-19T03:28:07.110Z,100.00
2023-05-19T03:30:34.044Z,100.00
2023-05-19T03:33:01.051Z,100.00
2023-05-19T03:35:27.868Z,100.00
2023-05-19T03:37:54.517Z,100.00
2023-05-19T03:40:21.191Z,100.00
2023-05-19T03:42:47.803Z,100.00
2023-05-19T03:45:14.569Z,100.00
2023-05-19T03:47:41.369Z,100.00
2023-05-19T03:50:08.351Z,100.00
2023-05-19T03:52:35.014Z,100.00
2023-05-19T03:55:01.625Z,100.00
2023-05-19T03:57:28.397Z,100.00
2023-05-19T03:59:55.123Z,100.00
2023-05-19T04:02:21.973Z,100.00
2023-05-19T04:04:48.849Z,100.00
2023-05-19T04:07:15.552Z,100.00
2023-05-19T04:09:42.596Z,100.00
2023-05-19T04:12:09.495Z,100.00
2023-05-19T04:14:36.117Z,100.00
2023-05-19T04:17:02.819Z,100.00
2023-05-19T04:19:29.608Z,100.00
2023-05-19T04:21:59.269Z,100.00
2023-05-19T04:24:25.876Z,100.00
2023-05-19T04:26:52.675Z,100.00
2023-05-19T04:29:19.465Z,100.00
2023-05-19T04:31:46.309Z,100.00
2023-05-19T04:34:12.971Z,100.00
2023-05-19T04:36:39.695Z,100.00
2023-05-19T04:39:06.381Z,100.00
2023-05-19T04:41:33.680Z,100.00
2023-05-19T04:44:00.467Z,100.00
2023-05-19T04:46:27.418Z,100.00
2023-05-19T04:48:54.123Z,100.00
2023-05-19T04:51:20.821Z,100.00
2023-05-19T04:53:47.690Z,100.00
2023-05-19T04:56:14.336Z,100.00
2023-05-19T04:58:42.038Z,100.00
2023-05-19T05:01:08.768Z,100.00
2023-05-19T05:03:35.626Z,100.00
2023-05-19T05:06:02.467Z,100.00
2023-05-19T05:08:29.104Z,100.00
2023-05-19T05:10:56.019Z,100.00
2023-05-19T05:13:23.779Z,100.00
2023-05-19T05:15:51.189Z,100.00
2023-05-19T05:18:18.637Z,100.00
2023-05-19T05:20:46.059Z,100.00
2023-05-19T05:23:13.075Z,100.00
2023-05-19T05:25:40.575Z,100.00
2023-05-19T05:28:07.336Z,100.00
2023-05-19T05:30:34.684Z,100.00
2023-05-19T05:33:02.245Z,100.00
2023-05-19T05:35:29.197Z,100.00
2023-05-19T05:37:55.929Z,100.00
2023-05-19T05:40:22.639Z,100.00
2023-05-19T05:42:49.298Z,100.00
2023-05-19T05:45:16.029Z,100.00
2023-05-19T05:47:42.994Z,100.00
2023-05-19T05:50:10.536Z,100.00
2023-05-19T05:52:38.309Z,100.00
2023-05-19T05:55:05.733Z,100.00
2023-05-19T05:57:32.373Z,100.00
2023-05-19T05:59:59.177Z,100.00
2023-05-19T06:02:26.219Z,100.00
2023-05-19T06:04:52.960Z,100.00
2023-05-19T06:07:20.229Z,100.00
2023-05-19T06:09:46.883Z,100.00
2023-05-19T06:12:13.544Z,100.00
2023-05-19T06:14:40.177Z,100.00
2023-05-19T06:17:09.276Z,100.00
2023-05-19T06:19:35.981Z,100.00
2023-05-19T06:22:02.752Z,100.00
2023-05-19T06:24:29.470Z,100.00
2023-05-19T06:26:56.151Z,100.00
2023-05-19T06:29:22.819Z,100.00
2023-05-19T06:31:49.626Z,100.00
2023-05-19T06:34:16.358Z,100.00
2023-05-19T06:36:43.074Z,100.00
2023-05-19T06:39:09.731Z,100.00
2023-05-19T06:41:38.516Z,100.00
2023-05-19T06:44:07.534Z,100.00
2023-05-19T06:46:34.326Z,100.00
2023-05-19T06:49:03.779Z,100.00
2023-05-19T06:51:30.619Z,100.00
2023-05-19T06:53:57.342Z,100.00
2023-05-19T06:56:24.072Z,100.00
2023-05-19T06:58:50.729Z,100.00
2023-05-19T07:01:17.407Z,100.00
2023-05-19T07:03:44.275Z,100.00
2023-05-19T07:06:11.094Z,100.00
2023-05-19T07:08:37.783Z,100.00
2023-05-19T07:11:07.286Z,100.00
2023-05-19T07:13:33.954Z,100.00
2023-05-19T07:16:00.780Z,100.00
2023-05-19T07:18:27.513Z,100.00
2023-05-19T07:20:54.216Z,100.00
2023-05-19T07:23:20.962Z,100.00
2023-05-19T07:25:47.680Z,100.00
2023-05-19T07:28:14.333Z,100.00
2023-05-19T07:30:41.095Z,100.00
2023-05-19T07:33:07.797Z,100.00
2023-05-19T07:35:34.634Z,100.00
2023-05-19T07:38:01.321Z,100.00
2023-05-19T07:40:27.957Z,100.00
2023-05-19T07:42:54.742Z,100.00
2023-05-19T07:45:21.509Z,100.00
2023-05-19T07:47:48.292Z,100.00
2023-05-19T07:50:14.953Z,100.00
2023-05-19T07:52:41.585Z,100.00
2023-05-19T07:55:08.565Z,100.00
2023-05-19T07:57:35.261Z,100.00
2023-05-19T08:00:02.081Z,100.00
2023-05-19T08:02:28.831Z,100.00
2023-05-19T08:04:55.630Z,100.00
2023-05-19T08:07:22.401Z,100.00
2023-05-19T08:09:49.051Z,99.42
2023-05-19T08:12:15.710Z,100.00
2023-05-19T08:14:42.442Z,100.00
2023-05-19T08:17:11.466Z,100.00
2023-05-19T08:19:38.129Z,100.00
2023-05-19T08:22:04.982Z,100.00
2023-05-19T08:24:31.678Z,100.00
2023-05-19T08:26:59.913Z,100.00
2023-05-19T08:29:26.600Z,100.00
2023-05-19T08:31:53.677Z,100.00
2023-05-19T08:34:20.444Z,100.00
2023-05-19T08:36:47.089Z,100.00
2023-05-19T08:39:13.807Z,94.21
2023-05-19T08:41:40.593Z,95.17
2023-05-19T08:44:07.427Z,97.44
2023-05-19T08:46:35.315Z,100.00
2023-05-19T08:49:05.615Z,98.85
2023-05-19T08:51:34.688Z,94.49
2023-05-19T08:54:12.381Z,91.26
2023-05-19T08:56:39.115Z,95.58
2023-05-19T08:59:07.020Z,93.75
2023-05-19T09:01:34.402Z,87.53
2023-05-19T09:04:01.720Z,92.96
2023-05-19T09:06:28.946Z,93.92
2023-05-19T09:08:55.934Z,93.33
2023-05-19T09:11:22.737Z,95.84
2023-05-19T09:13:49.713Z,91.92
2023-05-19T09:16:19.336Z,88.67
2023-05-19T09:18:57.323Z,86.31
2023-05-19T09:21:31.214Z,88.42
2023-05-19T09:23:59.293Z,97.29
2023-05-19T09:26:36.451Z,89.00
2023-05-19T09:29:03.280Z,93.95
2023-05-19T09:31:32.462Z,97.66
2023-05-19T09:33:59.224Z,94.39
2023-05-19T09:36:25.856Z,89.80
2023-05-19T09:38:52.670Z,95.16
2023-05-19T09:41:19.938Z,92.06
2023-05-19T09:43:54.683Z,91.69
2023-05-19T09:46:25.532Z,95.52
2023-05-19T09:48:57.556Z,88.15
2023-05-19T09:51:25.087Z,90.62
2023-05-19T09:53:52.927Z,94.24
2023-05-19T09:56:19.549Z,86.09
2023-05-19T09:58:46.259Z,85.54
2023-05-19T10:01:15.078Z,89.07
2023-05-19T10:03:42.484Z,85.34
2023-05-19T10:06:10.117Z,83.55
2023-05-19T10:08:37.737Z,84.72
2023-05-19T10:11:05.381Z,83.29
2023-05-19T10:13:32.079Z,85.42
2023-05-19T10:16:00.200Z,79.78
2023-05-19T10:18:27.469Z,77.98
2023-05-19T10:20:54.496Z,83.50
2023-05-19T10:23:21.260Z,83.33
2023-05-19T10:25:49.681Z,80.00
2023-05-19T10:28:18.765Z,82.92
2023-05-19T10:30:49.037Z,79.85
2023-05-19T10:33:18.162Z,77.33
2023-05-19T10:35:50.586Z,82.80
2023-05-19T10:38:40.448Z,86.46
2023-05-19T10:41:27.431Z,83.03
2023-05-19T10:44:17.744Z,81.71
2023-05-19T10:46:44.607Z,85.36
2023-05-19T10:49:20.626Z,85.65
2023-05-19T10:51:47.362Z,90.58
2023-05-19T10:54:14.484Z,82.05
2023-05-19T10:56:43.736Z,85.75
2023-05-19T10:59:30.826Z,76.45
2023-05-19T11:01:57.636Z,82.00
2023-05-19T11:04:47.440Z,80.47
2023-05-19T11:07:19.314Z,83.95
2023-05-19T11:09:50.504Z,75.44
2023-05-19T11:12:21.340Z,75.48
2023-05-19T11:14:48.266Z,72.22
2023-05-19T11:17:16.081Z,78.41
2023-05-19T11:19:53.945Z,78.47
2023-05-19T11:22:25.226Z,71.27
2023-05-19T11:24:54.517Z,74.50
2023-05-19T11:27:26.799Z,74.95
2023-05-19T11:29:55.437Z,68.91
2023-05-19T11:32:25.930Z,72.44
2023-05-19T11:34:52.877Z,68.48
2023-05-19T11:37:19.507Z,71.92
2023-05-19T11:39:46.762Z,70.55
2023-05-19T11:42:13.979Z,69.29
2023-05-19T11:44:40.861Z,71.53
2023-05-19T11:47:08.320Z,64.46
2023-05-19T11:49:35.102Z,66.93
2023-05-19T11:52:02.317Z,68.62
2023-05-19T11:54:33.154Z,63.01
2023-05-19T11:57:01.324Z,68.10
2023-05-19T11:59:32.265Z,69.23
2023-05-19T12:02:16.243Z,67.98
2023-05-19T12:04:43.387Z,66.46
2023-05-19T12:07:13.700Z,66.72
2023-05-19T12:09:40.544Z,66.35
2023-05-19T12:12:07.932Z,60.38
2023-05-19T12:14:35.663Z,64.05
2023-05-19T12:17:15.667Z,65.32
2023-05-19T12:19:46.953Z,60.47
2023-05-19T12:22:15.278Z,66.36
2023-05-19T12:24:43.706Z,64.09
2023-05-19T12:27:25.870Z,62.80
2023-05-19T12:29:54.710Z,61.58
2023-05-19T12:32:25.380Z,64.63
2023-05-19T12:34:53.163Z,58.97
2023-05-19T12:37:19.950Z,64.36
2023-05-19T12:39:49.032Z,61.96
2023-05-19T12:42:16.326Z,60.89
2023-05-19T12:44:45.371Z,62.54
2023-05-19T12:47:12.417Z,62.10
2023-05-19T12:49:59.285Z,60.26
2023-05-19T12:52:27.697Z,62.89
2023-05-19T12:55:02.308Z,62.35
2023-05-19T12:57:33.588Z,64.52
2023-05-19T13:00:03.586Z,57.86
2023-05-19T13:02:30.616Z,63.31
2023-05-19T13:04:59.820Z,61.71
2023-05-19T13:07:26.647Z,59.81
2023-05-19T13:09:53.408Z,61.59
2023-05-19T13:12:20.087Z,57.19
2023-05-19T13:14:46.846Z,60.08
2023-05-19T13:17:13.589Z,61.04
2023-05-19T13:19:40.272Z,60.65
2023-05-19T13:22:06.992Z,57.67
2023-05-19T13:24:33.689Z,61.56
2023-05-19T13:27:00.392Z,54.35
2023-05-19T13:29:27.017Z,60.31
2023-05-19T13:31:53.767Z,53.15
2023-05-19T13:34:20.465Z,55.70
2023-05-19T13:36:47.076Z,57.51
2023-05-19T13:39:14.097Z,57.06
2023-05-19T13:41:40.749Z,56.90
2023-05-19T13:44:07.485Z,55.91
2023-05-19T13:46:44.600Z,53.91
2023-05-19T13:49:12.662Z,55.31
2023-05-19T13:51:42.277Z,55.71
2023-05-19T13:54:08.965Z,53.46
2023-05-19T13:56:36.268Z,54.59
2023-05-19T13:59:03.433Z,57.09
2023-05-19T14:01:30.182Z,51.23
2023-05-19T14:03:57.196Z,54.70
2023-05-19T14:06:24.150Z,55.25
2023-05-19T14:08:50.850Z,54.05
2023-05-19T14:11:20.939Z,54.69
2023-05-19T14:13:50.567Z,54.87
2023-05-19T14:16:19.232Z,51.67
2023-05-19T14:18:46.068Z,50.13
2023-05-19T14:21:12.841Z,54.80
2023-05-19T14:23:39.550Z,53.72
2023-05-19T14:26:06.356Z,48.39
2023-05-19T14:28:33.199Z,54.39
2023-05-19T14:30:59.929Z,51.83
2023-05-19T14:33:26.676Z,53.89
2023-05-19T14:35:53.498Z,52.55
2023-05-19T14:38:20.163Z,52.11
2023-05-19T14:40:46.973Z,51.75
2023-05-19T14:43:13.858Z,47.77
2023-05-19T14:45:40.857Z,51.43
2023-05-19T14:48:08.179Z,49.13
2023-05-19T14:50:35.052Z,48.05
2023-05-19T14:53:02.023Z,50.20
2023-05-19T14:55:28.701Z,47.98
2023-05-19T14:57:55.471Z,50.63
2023-05-19T15:00:22.193Z,49.66
2023-05-19T15:02:51.508Z,48.60
2023-05-19T15:05:18.164Z,46.28
2023-05-19T15:07:45.125Z,49.85
2023-05-19T15:10:12.012Z,52.12
2023-05-19T15:12:38.698Z,52.75
2023-05-19T15:15:05.944Z,52.04
2023-05-19T15:17:32.679Z,51.78
2023-05-19T15:19:59.614Z,51.87
2023-05-19T15:22:26.554Z,53.78
2023-05-19T15:24:53.325Z,56.61
2023-05-19T15:27:20.101Z,56.61
2023-05-19T15:29:46.840Z,55.32
2023-05-19T15:32:13.539Z,55.26
2023-05-19T15:34:40.200Z,56.42
2023-05-19T15:37:06.947Z,52.88
2023-05-19T15:39:33.608Z,55.07
2023-05-19T15:42:00.355Z,57.80
2023-05-19T15:44:28.918Z,55.01
2023-05-19T15:46:55.786Z,57.21
2023-05-19T15:49:22.573Z,57.04
2023-05-19T15:51:49.238Z,56.27
2023-05-19T15:54:15.907Z,55.89
2023-05-19T15:56:42.563Z,54.09
2023-05-19T15:59:09.218Z,54.00
2023-05-19T16:01:36.308Z,54.12
2023-05-19T16:04:03.092Z,56.26
2023-05-19T16:06:30.387Z,54.43
2023-05-19T16:08:57.106Z,54.94
2023-05-19T16:11:23.954Z,51.98
2023-05-19T16:13:50.625Z,54.02
2023-05-19T16:16:17.261Z,53.33
2023-05-19T16:18:44.202Z,53.59
2023-05-19T16:21:11.096Z,51.93
2023-05-19T16:23:37.729Z,54.42
2023-05-19T16:26:04.459Z,53.52
2023-05-19T16:28:31.306Z,54.39
2023-05-19T16:30:58.875Z,52.94
2023-05-19T16:33:26.396Z,52.91
2023-05-19T16:35:53.064Z,53.48
2023-05-19T16:38:19.818Z,52.20
2023-05-19T16:40:46.572Z,51.43
2023-05-19T16:43:13.261Z,53.42
2023-05-19T16:45:42.928Z,52.04
2023-05-19T16:48:09.851Z,52.75
2023-05-19T16:50:37.195Z,53.54
2023-05-19T16:53:04.135Z,54.62
2023-05-19T16:55:30.779Z,55.19
2023-05-19T16:57:57.551Z,55.94
2023-05-19T17:00:24.316Z,57.32
2023-05-19T17:02:51.055Z,58.96
2023-05-19T17:05:17.985Z,63.47
2023-05-19T17:07:44.732Z,64.68
2023-05-19T17:10:11.566Z,65.05
2023-05-19T17:12:38.208Z,65.94
2023-05-19T17:15:05.510Z,65.61
2023-05-19T17:17:32.273Z,68.06
2023-05-19T17:19:59.032Z,67.49
2023-05-19T17:22:26.404Z,67.74
2023-05-19T17:24:54.224Z,66.80
2023-05-19T17:27:20.926Z,66.74
2023-05-19T17:29:47.662Z,67.63
2023-05-19T17:32:14.367Z,68.27
2023-05-19T17:34:41.057Z,69.28
2023-05-19T17:37:07.674Z,68.71
2023-05-19T17:39:34.383Z,68.17
2023-05-19T17:42:01.026Z,68.04
2023-05-19T17:44:27.868Z,68.37
2023-05-19T17:46:54.699Z,69.82
2023-05-19T17:49:21.393Z,69.83
2023-05-19T17:51:48.260Z,70.59
2023-05-19T17:54:15.430Z,71.63
2023-05-19T17:56:44.412Z,71.45
2023-05-19T17:59:11.481Z,70.55
2023-05-19T18:01:38.451Z,70.07
2023-05-19T18:04:05.569Z,70.84
2023-05-19T18:06:32.489Z,72.45
2023-05-19T18:09:01.048Z,71.90
2023-05-19T18:11:28.086Z,72.00
2023-05-19T18:13:54.823Z,72.65
2023-05-19T18:16:21.594Z,72.33
2023-05-19T18:18:48.302Z,72.55
2023-05-19T18:21:15.006Z,73.54
2023-05-19T18:23:41.817Z,74.42
2023-05-19T18:26:08.592Z,73.25
2023-05-19T18:28:35.225Z,73.69
2023-05-19T18:31:06.009Z,73.87
2023-05-19T18:33:33.253Z,74.97
2023-05-19T18:35:59.898Z,75.60
2023-05-19T18:38:26.782Z,75.08
2023-05-19T18:40:53.446Z,74.99
2023-05-19T18:43:20.104Z,76.36
2023-05-19T18:45:47.360Z,76.17
2023-05-19T18:48:14.070Z,75.92
2023-05-19T18:50:40.863Z,76.30
2023-05-19T18:53:07.520Z,76.70
2023-05-19T18:55:35.038Z,77.79
2023-05-19T18:58:02.629Z,78.42
2023-05-19T19:00:29.295Z,78.50
2023-05-19T19:02:56.074Z,78.95
2023-05-19T19:05:22.817Z,79.25
2023-05-19T19:07:49.507Z,79.36
2023-05-19T19:10:16.234Z,80.91
2023-05-19T19:12:42.848Z,82.19
2023-05-19T19:15:10.090Z,84.59
2023-05-19T19:17:37.192Z,86.14
2023-05-19T19:20:04.247Z,88.10
2023-05-19T19:22:30.993Z,88.00
2023-05-19T19:24:57.706Z,88.40
2023-05-19T19:27:24.472Z,88.11
2023-05-19T19:29:51.221Z,88.20
2023-05-19T19:32:17.920Z,89.83
2023-05-19T19:34:44.568Z,90.98
2023-05-19T19:37:11.248Z,90.61
2023-05-19T19:39:37.897Z,91.57
2023-05-19T19:42:04.872Z,91.77
2023-05-19T19:44:31.520Z,91.01
2023-05-19T19:46:58.270Z,91.87
2023-05-19T19:49:24.951Z,92.05
2023-05-19T19:51:51.693Z,89.66
2023-05-19T19:54:18.661Z,91.47
2023-05-19T19:56:45.513Z,93.95
2023-05-19T19:59:12.148Z,95.71
2023-05-19T20:01:38.868Z,97.71
2023-05-19T20:04:05.706Z,98.06
2023-05-19T20:06:32.422Z,96.14
2023-05-19T20:08:59.815Z,94.75
2023-05-19T20:11:26.469Z,96.00
2023-05-19T20:13:53.506Z,94.64
2023-05-19T20:16:20.252Z,93.52
2023-05-19T20:18:47.056Z,92.99
2023-05-19T20:21:13.787Z,92.05
2023-05-19T20:23:40.396Z,90.80
2023-05-19T20:26:12.365Z,89.96
2023-05-19T20:28:39.990Z,91.43
2023-05-19T20:31:06.797Z,91.63
2023-05-19T20:33:33.582Z,93.06
2023-05-19T20:36:00.458Z,92.36
2023-05-19T20:38:27.518Z,90.84
2023-05-19T20:40:54.485Z,90.25
2023-05-19T20:43:21.123Z,93.15
2023-05-19T20:45:48.007Z,93.92
2023-05-19T20:48:14.832Z,93.02
2023-05-19T20:50:41.463Z,94.10
2023-05-19T20:53:08.188Z,93.85
2023-05-19T20:55:35.100Z,94.38
2023-05-19T20:58:01.983Z,94.24
2023-05-19T21:00:30.362Z,95.82
2023-05-19T21:02:57.493Z,96.38
2023-05-19T21:05:24.723Z,96.38
2023-05-19T21:07:51.462Z,96.06
2023-05-19T21:10:18.378Z,94.55
2023-05-19T21:12:47.869Z,92.87
2023-05-19T21:15:14.733Z,92.56
2023-05-19T21:17:41.486Z,94.08
2023-05-19T21:20:11.992Z,93.64
2023-05-19T21:22:38.641Z,93.66
2023-05-19T21:25:05.836Z,93.79
2023-05-19T21:27:32.474Z,94.07
2023-05-19T21:29:59.128Z,94.90
2023-05-19T21:32:25.810Z,95.93
2023-05-19T21:34:52.528Z,96.19
2023-05-19T21:37:19.145Z,95.74
2023-05-19T21:39:45.852Z,98.76
2023-05-19T21:42:12.597Z,98.56
2023-05-19T21:44:39.301Z,100.00
2023-05-19T21:47:05.935Z,99.59
2023-05-19T21:49:32.603Z,99.56
2023-05-19T21:51:59.320Z,99.40
2023-05-19T21:54:26.194Z,100.00
2023-05-19T21:56:52.824Z,100.00
2023-05-19T21:59:19.514Z,100.00
2023-05-19T22:01:46.369Z,100.00
2023-05-19T22:04:13.077Z,100.00
2023-05-19T22:06:39.698Z,100.00
2023-05-19T22:09:06.337Z,100.00
2023-05-19T22:11:33.090Z,100.00
2023-05-19T22:13:59.721Z,100.00
2023-05-19T22:16:26.387Z,100.00
2023-05-19T22:18:53.133Z,100.00
2023-05-19T22:21:19.971Z,100.00
2023-05-19T22:23:46.732Z,100.00
2023-05-19T22:26:13.362Z,100.00
2023-05-19T22:28:40.219Z,100.00
2023-05-19T22:31:06.909Z,100.00
2023-05-19T22:33:33.521Z,100.00
2023-05-19T22:36:00.202Z,100.00
2023-05-19T22:38:26.841Z,100.00
2023-05-19T22:40:53.608Z,100.00
2023-05-19T22:43:20.339Z,100.00
2023-05-19T22:45:47.039Z,100.00
2023-05-19T22:48:13.883Z,100.00
2023-05-19T22:50:40.517Z,100.00
2023-05-19T22:53:07.210Z,100.00
2023-05-19T22:55:34.283Z,100.00
2023-05-19T22:58:01.170Z,100.00
2023-05-19T23:00:27.844Z,100.00
2023-05-19T23:02:54.760Z,100.00
2023-05-19T23:05:21.512Z,100.00
2023-05-19T23:07:48.194Z,100.00
2023-05-19T23:10:14.933Z,100.00
2023-05-19T23:12:44.103Z,100.00
2023-05-19T23:15:10.968Z,100.00
2023-05-19T23:17:37.946Z,100.00
2023-05-19T23:20:04.954Z,100.00
2023-05-19T23:22:31.601Z,100.00
2023-05-19T23:24:58.457Z,100.00
2023-05-19T23:27:25.163Z,100.00
2023-05-19T23:29:51.815Z,100.00
2023-05-19T23:32:18.563Z,100.00
2023-05-19T23:34:47.470Z,100.00
2023-05-19T23:37:14.173Z,100.00
2023-05-19T23:39:40.770Z,100.00
2023-05-19T23:42:07.434Z,100.00
2023-05-19T23:44:34.136Z,100.00
2023-05-19T23:47:00.865Z,100.00
2023-05-19T23:49:27.642Z,100.00
2023-05-19T23:51:54.328Z,100.00
2023-05-19T23:54:21.002Z,100.00
2023-05-19T23:56:47.732Z,100.00
2023-05-19T23:59:14.430Z,100.00
